sensor_id;sensor_type;location;lat;lon;timestamp;P1;durP1;ratioP1;P2;durP2;ratioP2
9160;SDS011;4615;51.340;8.288;2023-02-02T00:00:09;7.18;;;2.00;;
9160;SDS011;4615;51.340;8.288;2023-02-02T00:02:36;6.00;;;1.83;;
9160;SDS011;4615;51.340;8.288;2023-02-02T00:05:02;6.88;;;2.28;;
9160;SDS011;4615;51.340;8.288;2023-02-02T00:07:29;7.50;;;1.90;;
9160;SDS011;4615;51.340;8.288;2023-02-02T00:09:55;5.40;;;2.00;;
9160;SDS011;4615;51.340;8.288;2023-02-02T00:12:21;7.07;;;2.30;;
9160;SDS011;4615;51.340;8.288;2023-02-02T00:14:49;7.10;;;2.15;;
9160;SDS011;4615;51.340;8.288;2023-02-02T00:17:15;6.05;;;2.15;;
9160;SDS011;4615;51.340;8.288;2023-02-02T00:19:42;6.70;;;2.60;;
9160;SDS011;4615;51.340;8.288;2023-02-02T00:22:10;6.15;;;2.15;;
9160;SDS011;4615;51.340;8.288;2023-02-02T00:24:37;6.03;;;2.38;;
9160;SDS011;4615;51.340;8.288;2023-02-02T00:27:03;8.95;;;2.28;;
9160;SDS011;4615;51.340;8.288;2023-02-02T00:29:30;9.35;;;2.65;;
9160;SDS011;4615;51.340;8.288;2023-02-02T00:31:58;6.57;;;2.25;;
9160;SDS011;4615;51.340;8.288;2023-02-02T00:34:24;8.02;;;2.30;;
9160;SDS011;4615;51.340;8.288;2023-02-02T00:36:51;6.53;;;2.20;;
9160;SDS011;4615;51.340;8.288;2023-02-02T00:39:18;7.25;;;2.50;;
9160;SDS011;4615;51.340;8.288;2023-02-02T00:41:45;8.05;;;2.50;;
9160;SDS011;4615;51.340;8.288;2023-02-02T00:44:11;7.43;;;2.60;;
9160;SDS011;4615;51.340;8.288;2023-02-02T00:46:57;8.27;;;2.50;;
9160;SDS011;4615;51.340;8.288;2023-02-02T00:49:23;6.30;;;2.50;;
9160;SDS011;4615;51.340;8.288;2023-02-02T00:51:50;9.50;;;2.78;;
9160;SDS011;4615;51.340;8.288;2023-02-02T00:54:16;8.63;;;2.80;;
9160;SDS011;4615;51.340;8.288;2023-02-02T00:56:43;8.32;;;2.60;;
9160;SDS011;4615;51.340;8.288;2023-02-02T00:59:09;8.88;;;2.95;;
9160;SDS011;4615;51.340;8.288;2023-02-02T01:01:36;9.35;;;2.90;;
9160;SDS011;4615;51.340;8.288;2023-02-02T01:04:04;9.20;;;2.83;;
9160;SDS011;4615;51.340;8.288;2023-02-02T01:06:30;8.67;;;3.00;;
9160;SDS011;4615;51.340;8.288;2023-02-02T01:08:56;8.73;;;3.08;;
9160;SDS011;4615;51.340;8.288;2023-02-02T01:11:23;7.38;;;2.80;;
9160;SDS011;4615;51.340;8.288;2023-02-02T01:13:49;8.52;;;3.00;;
9160;SDS011;4615;51.340;8.288;2023-02-02T01:16:16;8.55;;;2.97;;
9160;SDS011;4615;51.340;8.288;2023-02-02T01:18:42;9.23;;;3.10;;
9160;SDS011;4615;51.340;8.288;2023-02-02T01:21:10;8.82;;;2.83;;
9160;SDS011;4615;51.340;8.288;2023-02-02T01:23:37;8.13;;;3.03;;
9160;SDS011;4615;51.340;8.288;2023-02-02T01:26:04;9.80;;;3.45;;
9160;SDS011;4615;51.340;8.288;2023-02-02T01:28:31;10.07;;;3.60;;
9160;SDS011;4615;51.340;8.288;2023-02-02T01:30:57;11.25;;;3.70;;
9160;SDS011;4615;51.340;8.288;2023-02-02T01:33:24;10.77;;;3.97;;
9160;SDS011;4615;51.340;8.288;2023-02-02T01:35:53;9.05;;;3.97;;
9160;SDS011;4615;51.340;8.288;2023-02-02T01:38:21;9.57;;;4.22;;
9160;SDS011;4615;51.340;8.288;2023-02-02T01:40:49;10.00;;;4.40;;
9160;SDS011;4615;51.340;8.288;2023-02-02T01:43:19;11.38;;;5.05;;
9160;SDS011;4615;51.340;8.288;2023-02-02T01:45:47;12.93;;;4.67;;
9160;SDS011;4615;51.340;8.288;2023-02-02T01:48:13;11.52;;;4.55;;
9160;SDS011;4615;51.340;8.288;2023-02-02T01:50:40;10.18;;;5.13;;
9160;SDS011;4615;51.340;8.288;2023-02-02T01:53:07;10.77;;;5.78;;
9160;SDS011;4615;51.340;8.288;2023-02-02T01:55:35;15.05;;;6.07;;
9160;SDS011;4615;51.340;8.288;2023-02-02T01:58:03;12.98;;;5.93;;
9160;SDS011;4615;51.340;8.288;2023-02-02T02:00:31;12.95;;;6.03;;
9160;SDS011;4615;51.340;8.288;2023-02-02T02:02:57;14.52;;;6.13;;
9160;SDS011;4615;51.340;8.288;2023-02-02T02:05:26;12.43;;;6.07;;
9160;SDS011;4615;51.340;8.288;2023-02-02T02:07:55;14.20;;;6.57;;
9160;SDS011;4615;51.340;8.288;2023-02-02T02:10:22;14.95;;;7.65;;
9160;SDS011;4615;51.340;8.288;2023-02-02T02:12:50;14.20;;;7.75;;
9160;SDS011;4615;51.340;8.288;2023-02-02T02:15:16;14.73;;;7.93;;
9160;SDS011;4615;51.340;8.288;2023-02-02T02:18:04;13.63;;;7.57;;
9160;SDS011;4615;51.340;8.288;2023-02-02T02:26:55;12.85;;;8.18;;
9160;SDS011;4615;51.340;8.288;2023-02-02T02:29:38;14.80;;;9.00;;
9160;SDS011;4615;51.340;8.288;2023-02-02T02:32:23;13.90;;;9.10;;
9160;SDS011;4615;51.340;8.288;2023-02-02T02:34:53;14.98;;;9.38;;
9160;SDS011;4615;51.340;8.288;2023-02-02T02:37:22;14.13;;;9.30;;
9160;SDS011;4615;51.340;8.288;2023-02-02T02:39:53;13.40;;;9.07;;
9160;SDS011;4615;51.340;8.288;2023-02-02T02:42:21;15.53;;;9.33;;
9160;SDS011;4615;51.340;8.288;2023-02-02T02:44:49;13.48;;;8.80;;
9160;SDS011;4615;51.340;8.288;2023-02-02T02:47:16;16.70;;;9.60;;
9160;SDS011;4615;51.340;8.288;2023-02-02T02:49:45;15.18;;;9.48;;
9160;SDS011;4615;51.340;8.288;2023-02-02T02:52:12;13.30;;;8.75;;
9160;SDS011;4615;51.340;8.288;2023-02-02T02:54:40;15.27;;;8.50;;
9160;SDS011;4615;51.340;8.288;2023-02-02T02:57:12;15.27;;;8.20;;
9160;SDS011;4615;51.340;8.288;2023-02-02T02:59:44;16.88;;;8.93;;
9160;SDS011;4615;51.340;8.288;2023-02-02T03:02:17;17.25;;;9.38;;
9160;SDS011;4615;51.340;8.288;2023-02-02T03:04:52;14.15;;;8.38;;
9160;SDS011;4615;51.340;8.288;2023-02-02T03:07:21;14.57;;;8.30;;
9160;SDS011;4615;51.340;8.288;2023-02-02T03:09:48;13.38;;;8.23;;
9160;SDS011;4615;51.340;8.288;2023-02-02T03:12:16;15.15;;;7.78;;
9160;SDS011;4615;51.340;8.288;2023-02-02T03:14:43;14.88;;;7.45;;
9160;SDS011;4615;51.340;8.288;2023-02-02T03:17:09;16.93;;;8.17;;
9160;SDS011;4615;51.340;8.288;2023-02-02T03:19:36;15.50;;;7.72;;
9160;SDS011;4615;51.340;8.288;2023-02-02T03:22:03;17.23;;;7.70;;
9160;SDS011;4615;51.340;8.288;2023-02-02T03:24:30;13.27;;;7.45;;
9160;SDS011;4615;51.340;8.288;2023-02-02T03:26:56;15.87;;;8.07;;
9160;SDS011;4615;51.340;8.288;2023-02-02T03:29:22;15.73;;;8.48;;
9160;SDS011;4615;51.340;8.288;2023-02-02T03:31:49;18.25;;;8.60;;
9160;SDS011;4615;51.340;8.288;2023-02-02T03:34:15;17.00;;;8.13;;
9160;SDS011;4615;51.340;8.288;2023-02-02T03:36:42;11.88;;;6.93;;
9160;SDS011;4615;51.340;8.288;2023-02-02T03:39:10;15.63;;;7.60;;
9160;SDS011;4615;51.340;8.288;2023-02-02T03:41:36;10.73;;;6.45;;
9160;SDS011;4615;51.340;8.288;2023-02-02T03:44:02;11.00;;;6.50;;
9160;SDS011;4615;51.340;8.288;2023-02-02T03:46:29;13.30;;;7.18;;
9160;SDS011;4615;51.340;8.288;2023-02-02T03:48:55;12.98;;;6.78;;
9160;SDS011;4615;51.340;8.288;2023-02-02T03:51:21;10.68;;;6.35;;
9160;SDS011;4615;51.340;8.288;2023-02-02T03:53:48;12.30;;;6.18;;
9160;SDS011;4615;51.340;8.288;2023-02-02T03:56:16;11.43;;;6.50;;
9160;SDS011;4615;51.340;8.288;2023-02-02T03:58:43;12.20;;;6.63;;
9160;SDS011;4615;51.340;8.288;2023-02-02T04:01:10;11.85;;;6.50;;
9160;SDS011;4615;51.340;8.288;2023-02-02T04:03:37;10.32;;;4.90;;
9160;SDS011;4615;51.340;8.288;2023-02-02T04:06:03;8.30;;;4.22;;
9160;SDS011;4615;51.340;8.288;2023-02-02T04:08:30;8.88;;;4.60;;
9160;SDS011;4615;51.340;8.288;2023-02-02T04:10:58;9.35;;;4.93;;
9160;SDS011;4615;51.340;8.288;2023-02-02T04:13:25;9.93;;;5.03;;
9160;SDS011;4615;51.340;8.288;2023-02-02T04:15:55;7.53;;;4.43;;
9160;SDS011;4615;51.340;8.288;2023-02-02T04:18:21;7.35;;;4.30;;
9160;SDS011;4615;51.340;8.288;2023-02-02T04:20:48;7.93;;;4.30;;
9160;SDS011;4615;51.340;8.288;2023-02-02T04:23:14;5.95;;;4.00;;
9160;SDS011;4615;51.340;8.288;2023-02-02T04:25:47;6.33;;;4.20;;
9160;SDS011;4615;51.340;8.288;2023-02-02T04:28:13;8.00;;;4.43;;
9160;SDS011;4615;51.340;8.288;2023-02-02T04:30:41;6.90;;;4.40;;
9160;SDS011;4615;51.340;8.288;2023-02-02T04:33:08;7.47;;;4.40;;
9160;SDS011;4615;51.340;8.288;2023-02-02T04:35:34;7.28;;;4.32;;
9160;SDS011;4615;51.340;8.288;2023-02-02T04:38:00;8.13;;;4.40;;
9160;SDS011;4615;51.340;8.288;2023-02-02T04:40:27;7.57;;;4.77;;
9160;SDS011;4615;51.340;8.288;2023-02-02T04:42:53;7.32;;;5.30;;
9160;SDS011;4615;51.340;8.288;2023-02-02T04:45:20;7.68;;;5.55;;
9160;SDS011;4615;51.340;8.288;2023-02-02T04:47:47;7.33;;;5.00;;
9160;SDS011;4615;51.340;8.288;2023-02-02T04:50:14;9.43;;;5.47;;
9160;SDS011;4615;51.340;8.288;2023-02-02T04:52:40;8.07;;;5.10;;
9160;SDS011;4615;51.340;8.288;2023-02-02T04:55:07;9.63;;;4.90;;
9160;SDS011;4615;51.340;8.288;2023-02-02T04:57:33;8.57;;;5.55;;
9160;SDS011;4615;51.340;8.288;2023-02-02T05:00:00;8.97;;;5.60;;
9160;SDS011;4615;51.340;8.288;2023-02-02T05:02:26;7.47;;;5.28;;
9160;SDS011;4615;51.340;8.288;2023-02-02T05:04:54;7.97;;;4.93;;
9160;SDS011;4615;51.340;8.288;2023-02-02T05:07:20;6.68;;;4.22;;
9160;SDS011;4615;51.340;8.288;2023-02-02T05:09:47;8.30;;;3.77;;
9160;SDS011;4615;51.340;8.288;2023-02-02T05:12:13;6.88;;;4.10;;
9160;SDS011;4615;51.340;8.288;2023-02-02T05:14:39;5.32;;;2.78;;
9160;SDS011;4615;51.340;8.288;2023-02-02T05:17:06;7.10;;;2.80;;
9160;SDS011;4615;51.340;8.288;2023-02-02T05:19:32;8.00;;;2.72;;
9160;SDS011;4615;51.340;8.288;2023-02-02T05:22:00;7.88;;;2.75;;
9160;SDS011;4615;51.340;8.288;2023-02-02T05:24:26;5.65;;;2.28;;
9160;SDS011;4615;51.340;8.288;2023-02-02T05:26:53;5.50;;;2.30;;
9160;SDS011;4615;51.340;8.288;2023-02-02T05:29:22;4.05;;;2.05;;
9160;SDS011;4615;51.340;8.288;2023-02-02T05:31:48;5.75;;;2.10;;
9160;SDS011;4615;51.340;8.288;2023-02-02T05:34:15;5.13;;;1.80;;
9160;SDS011;4615;51.340;8.288;2023-02-02T05:36:41;5.32;;;2.10;;
9160;SDS011;4615;51.340;8.288;2023-02-02T05:39:09;5.55;;;2.10;;
9160;SDS011;4615;51.340;8.288;2023-02-02T05:41:36;5.85;;;2.25;;
9160;SDS011;4615;51.340;8.288;2023-02-02T05:44:03;5.13;;;1.90;;
9160;SDS011;4615;51.340;8.288;2023-02-02T05:46:29;5.20;;;2.05;;
9160;SDS011;4615;51.340;8.288;2023-02-02T05:48:56;5.28;;;2.17;;
9160;SDS011;4615;51.340;8.288;2023-02-02T05:51:23;4.88;;;1.85;;
9160;SDS011;4615;51.340;8.288;2023-02-02T05:53:50;3.58;;;1.90;;
9160;SDS011;4615;51.340;8.288;2023-02-02T05:56:18;4.07;;;1.90;;
9160;SDS011;4615;51.340;8.288;2023-02-02T05:58:44;4.70;;;2.10;;
9160;SDS011;4615;51.340;8.288;2023-02-02T06:01:13;4.55;;;2.00;;
9160;SDS011;4615;51.340;8.288;2023-02-02T06:03:40;4.40;;;2.00;;
9160;SDS011;4615;51.340;8.288;2023-02-02T06:06:06;5.67;;;2.30;;
9160;SDS011;4615;51.340;8.288;2023-02-02T06:08:33;4.50;;;2.07;;
9160;SDS011;4615;51.340;8.288;2023-02-02T06:11:06;5.45;;;2.33;;
9160;SDS011;4615;51.340;8.288;2023-02-02T06:13:34;4.70;;;2.20;;
9160;SDS011;4615;51.340;8.288;2023-02-02T06:16:00;5.30;;;2.70;;
9160;SDS011;4615;51.340;8.288;2023-02-02T06:18:27;3.53;;;2.17;;
9160;SDS011;4615;51.340;8.288;2023-02-02T06:20:55;5.93;;;2.40;;
9160;SDS011;4615;51.340;8.288;2023-02-02T06:23:21;2.95;;;1.88;;
9160;SDS011;4615;51.340;8.288;2023-02-02T06:25:48;4.65;;;2.15;;
9160;SDS011;4615;51.340;8.288;2023-02-02T06:28:14;3.60;;;2.20;;
9160;SDS011;4615;51.340;8.288;2023-02-02T06:30:42;3.38;;;2.35;;
9160;SDS011;4615;51.340;8.288;2023-02-02T06:33:08;3.55;;;3.20;;
9160;SDS011;4615;51.340;8.288;2023-02-02T06:35:35;4.03;;;3.10;;
9160;SDS011;4615;51.340;8.288;2023-02-02T06:38:01;4.73;;;3.70;;
9160;SDS011;4615;51.340;8.288;2023-02-02T06:40:27;7.05;;;4.80;;
9160;SDS011;4615;51.340;8.288;2023-02-02T06:42:54;5.32;;;4.53;;
9160;SDS011;4615;51.340;8.288;2023-02-02T06:45:21;5.55;;;4.97;;
9160;SDS011;4615;51.340;8.288;2023-02-02T06:47:48;7.13;;;5.78;;
9160;SDS011;4615;51.340;8.288;2023-02-02T06:50:15;6.70;;;6.10;;
9160;SDS011;4615;51.340;8.288;2023-02-02T06:52:45;7.15;;;6.45;;
9160;SDS011;4615;51.340;8.288;2023-02-02T06:55:12;8.85;;;7.95;;
9160;SDS011;4615;51.340;8.288;2023-02-02T06:57:38;8.90;;;8.00;;
9160;SDS011;4615;51.340;8.288;2023-02-02T07:00:05;8.80;;;7.90;;
9160;SDS011;4615;51.340;8.288;2023-02-02T07:02:31;9.18;;;8.02;;
9160;SDS011;4615;51.340;8.288;2023-02-02T07:04:59;10.00;;;9.00;;
9160;SDS011;4615;51.340;8.288;2023-02-02T07:07:26;9.02;;;8.13;;
9160;SDS011;4615;51.340;8.288;2023-02-02T07:09:52;11.23;;;9.30;;
9160;SDS011;4615;51.340;8.288;2023-02-02T07:12:19;10.27;;;8.85;;
9160;SDS011;4615;51.340;8.288;2023-02-02T07:14:45;8.80;;;7.90;;
9160;SDS011;4615;51.340;8.288;2023-02-02T07:17:13;10.20;;;8.20;;
9160;SDS011;4615;51.340;8.288;2023-02-02T07:19:39;11.93;;;9.40;;
9160;SDS011;4615;51.340;8.288;2023-02-02T07:22:07;8.00;;;7.18;;
9160;SDS011;4615;51.340;8.288;2023-02-02T07:24:33;8.93;;;7.97;;
9160;SDS011;4615;51.340;8.288;2023-02-02T07:27:04;9.88;;;8.73;;
9160;SDS011;4615;51.340;8.288;2023-02-02T07:29:30;9.70;;;7.93;;
9160;SDS011;4615;51.340;8.288;2023-02-02T07:31:56;8.48;;;7.35;;
9160;SDS011;4615;51.340;8.288;2023-02-02T07:34:23;9.23;;;8.02;;
9160;SDS011;4615;51.340;8.288;2023-02-02T07:36:50;8.65;;;7.70;;
9160;SDS011;4615;51.340;8.288;2023-02-02T07:39:17;8.73;;;7.83;;
9160;SDS011;4615;51.340;8.288;2023-02-02T07:41:44;9.10;;;8.20;;
9160;SDS011;4615;51.340;8.288;2023-02-02T07:44:11;8.57;;;7.70;;
9160;SDS011;4615;51.340;8.288;2023-02-02T07:46:39;9.18;;;7.63;;
9160;SDS011;4615;51.340;8.288;2023-02-02T07:49:05;9.63;;;7.97;;
9160;SDS011;4615;51.340;8.288;2023-02-02T07:51:32;8.07;;;7.38;;
9160;SDS011;4615;51.340;8.288;2023-02-02T07:53:58;8.77;;;7.78;;
9160;SDS011;4615;51.340;8.288;2023-02-02T07:56:26;8.02;;;7.22;;
9160;SDS011;4615;51.340;8.288;2023-02-02T07:58:54;8.10;;;7.30;;
9160;SDS011;4615;51.340;8.288;2023-02-02T08:01:21;10.60;;;8.23;;
9160;SDS011;4615;51.340;8.288;2023-02-02T08:03:47;9.53;;;8.27;;
9160;SDS011;4615;51.340;8.288;2023-02-02T08:06:15;8.80;;;7.93;;
9160;SDS011;4615;51.340;8.288;2023-02-02T08:08:42;8.65;;;7.18;;
9160;SDS011;4615;51.340;8.288;2023-02-02T08:11:09;9.40;;;7.90;;
9160;SDS011;4615;51.340;8.288;2023-02-02T08:13:37;8.57;;;7.78;;
9160;SDS011;4615;51.340;8.288;2023-02-02T08:16:04;8.43;;;7.63;;
9160;SDS011;4615;51.340;8.288;2023-02-02T08:18:31;8.25;;;7.32;;
9160;SDS011;4615;51.340;8.288;2023-02-02T08:20:57;8.35;;;7.50;;
9160;SDS011;4615;51.340;8.288;2023-02-02T08:23:24;8.60;;;7.70;;
9160;SDS011;4615;51.340;8.288;2023-02-02T08:25:50;9.95;;;7.40;;
9160;SDS011;4615;51.340;8.288;2023-02-02T08:28:17;6.80;;;6.20;;
9160;SDS011;4615;51.340;8.288;2023-02-02T08:30:45;7.30;;;6.60;;
9160;SDS011;4615;51.340;8.288;2023-02-02T08:33:11;7.60;;;6.57;;
9160;SDS011;4615;51.340;8.288;2023-02-02T08:35:39;6.80;;;6.10;;
9160;SDS011;4615;51.340;8.288;2023-02-02T08:38:05;6.28;;;5.68;;
9160;SDS011;4615;51.340;8.288;2023-02-02T08:40:32;7.60;;;6.78;;
9160;SDS011;4615;51.340;8.288;2023-02-02T08:42:58;7.20;;;6.50;;
9160;SDS011;4615;51.340;8.288;2023-02-02T08:45:25;7.03;;;6.32;;
9160;SDS011;4615;51.340;8.288;2023-02-02T08:47:53;6.75;;;6.15;;
9160;SDS011;4615;51.340;8.288;2023-02-02T08:50:20;7.13;;;6.53;;
9160;SDS011;4615;51.340;8.288;2023-02-02T08:52:46;7.28;;;6.10;;
9160;SDS011;4615;51.340;8.288;2023-02-02T08:55:12;7.10;;;6.40;;
9160;SDS011;4615;51.340;8.288;2023-02-02T08:57:40;7.30;;;6.60;;
9160;SDS011;4615;51.340;8.288;2023-02-02T09:00:06;7.97;;;6.47;;
9160;SDS011;4615;51.340;8.288;2023-02-02T09:02:33;8.68;;;7.00;;
9160;SDS011;4615;51.340;8.288;2023-02-02T09:05:01;8.40;;;7.60;;
9160;SDS011;4615;51.340;8.288;2023-02-02T09:07:27;8.57;;;7.68;;
9160;SDS011;4615;51.340;8.288;2023-02-02T09:09:53;9.13;;;8.00;;
9160;SDS011;4615;51.340;8.288;2023-02-02T09:12:22;9.35;;;7.97;;
9160;SDS011;4615;51.340;8.288;2023-02-02T09:14:48;8.15;;;7.00;;
9160;SDS011;4615;51.340;8.288;2023-02-02T09:17:15;7.85;;;6.43;;
9160;SDS011;4615;51.340;8.288;2023-02-02T09:19:41;8.23;;;6.70;;
9160;SDS011;4615;51.340;8.288;2023-02-02T09:22:09;5.50;;;5.00;;
9160;SDS011;4615;51.340;8.288;2023-02-02T09:24:35;5.95;;;4.90;;
9160;SDS011;4615;51.340;8.288;2023-02-02T09:27:01;5.72;;;4.85;;
9160;SDS011;4615;51.340;8.288;2023-02-02T09:29:28;5.88;;;5.15;;
9160;SDS011;4615;51.340;8.288;2023-02-02T09:31:54;4.50;;;4.10;;
9160;SDS011;4615;51.340;8.288;2023-02-02T09:34:21;5.30;;;4.80;;
9160;SDS011;4615;51.340;8.288;2023-02-02T09:36:47;6.30;;;5.20;;
9160;SDS011;4615;51.340;8.288;2023-02-02T09:39:15;7.07;;;6.17;;
9160;SDS011;4615;51.340;8.288;2023-02-02T09:41:58;7.63;;;6.63;;
9160;SDS011;4615;51.340;8.288;2023-02-02T09:44:41;7.70;;;6.90;;
9160;SDS011;4615;51.340;8.288;2023-02-02T09:47:13;7.20;;;6.50;;
9160;SDS011;4615;51.340;8.288;2023-02-02T09:49:44;7.00;;;6.30;;
9160;SDS011;4615;51.340;8.288;2023-02-02T09:52:14;6.35;;;5.75;;
9160;SDS011;4615;51.340;8.288;2023-02-02T09:54:43;7.47;;;6.65;;
9160;SDS011;4615;51.340;8.288;2023-02-02T09:57:11;6.45;;;5.85;;
9160;SDS011;4615;51.340;8.288;2023-02-02T09:59:40;7.97;;;5.57;;
9160;SDS011;4615;51.340;8.288;2023-02-02T10:02:11;4.70;;;4.22;;
9160;SDS011;4615;51.340;8.288;2023-02-02T10:04:38;4.65;;;3.65;;
9160;SDS011;4615;51.340;8.288;2023-02-02T10:07:06;3.20;;;2.60;;
9160;SDS011;4615;51.340;8.288;2023-02-02T10:09:35;3.83;;;2.70;;
9160;SDS011;4615;51.340;8.288;2023-02-02T10:12:15;3.40;;;2.65;;
9160;SDS011;4615;51.340;8.288;2023-02-02T10:14:43;3.63;;;3.00;;
9160;SDS011;4615;51.340;8.288;2023-02-02T10:17:20;4.45;;;4.05;;
9160;SDS011;4615;51.340;8.288;2023-02-02T10:19:49;5.43;;;4.90;;
9160;SDS011;4615;51.340;8.288;2023-02-02T10:22:18;5.18;;;4.68;;
9160;SDS011;4615;51.340;8.288;2023-02-02T10:24:46;5.47;;;4.68;;
9160;SDS011;4615;51.340;8.288;2023-02-02T10:27:15;4.93;;;4.43;;
9160;SDS011;4615;51.340;8.288;2023-02-02T10:29:43;4.20;;;3.70;;
9160;SDS011;4615;51.340;8.288;2023-02-02T10:32:13;4.13;;;3.72;;
9160;SDS011;4615;51.340;8.288;2023-02-02T10:34:49;4.78;;;4.28;;
9160;SDS011;4615;51.340;8.288;2023-02-02T10:37:25;4.35;;;3.80;;
9160;SDS011;4615;51.340;8.288;2023-02-02T10:42:41;4.28;;;3.67;;
9160;SDS011;4615;51.340;8.288;2023-02-02T10:45:29;5.53;;;4.32;;
9160;SDS011;4615;51.340;8.288;2023-02-02T10:47:56;3.85;;;3.55;;
9160;SDS011;4615;51.340;8.288;2023-02-02T10:50:22;4.82;;;3.97;;
9160;SDS011;4615;51.340;8.288;2023-02-02T10:52:51;4.10;;;3.70;;
9160;SDS011;4615;51.340;8.288;2023-02-02T10:55:20;3.97;;;3.67;;
9160;SDS011;4615;51.340;8.288;2023-02-02T10:57:59;4.90;;;4.40;;
9160;SDS011;4615;51.340;8.288;2023-02-02T11:00:27;4.20;;;3.80;;
9160;SDS011;4615;51.340;8.288;2023-02-02T11:02:55;4.43;;;4.03;;
9160;SDS011;4615;51.340;8.288;2023-02-02T11:05:23;5.00;;;4.50;;
9160;SDS011;4615;51.340;8.288;2023-02-02T11:08:11;4.30;;;3.90;;
9160;SDS011;4615;51.340;8.288;2023-02-02T11:10:38;5.10;;;4.60;;
9160;SDS011;4615;51.340;8.288;2023-02-02T11:13:06;6.25;;;4.63;;
9160;SDS011;4615;51.340;8.288;2023-02-02T11:15:33;3.63;;;3.33;;
9160;SDS011;4615;51.340;8.288;2023-02-02T11:18:11;2.50;;;2.30;;
9160;SDS011;4615;51.340;8.288;2023-02-02T11:20:38;2.20;;;2.00;;
9160;SDS011;4615;51.340;8.288;2023-02-02T11:23:04;2.13;;;1.92;;
9160;SDS011;4615;51.340;8.288;2023-02-02T11:25:32;2.83;;;2.10;;
9160;SDS011;4615;51.340;8.288;2023-02-02T11:27:59;1.83;;;1.73;;
9160;SDS011;4615;51.340;8.288;2023-02-02T11:30:29;2.45;;;2.25;;
9160;SDS011;4615;51.340;8.288;2023-02-02T11:32:56;2.20;;;2.00;;
9160;SDS011;4615;51.340;8.288;2023-02-02T11:35:23;2.03;;;1.80;;
9160;SDS011;4615;51.340;8.288;2023-02-02T11:37:51;1.90;;;1.80;;
9160;SDS011;4615;51.340;8.288;2023-02-02T11:40:19;2.13;;;1.90;;
9160;SDS011;4615;51.340;8.288;2023-02-02T11:42:50;2.20;;;2.10;;
9160;SDS011;4615;51.340;8.288;2023-02-02T11:45:17;2.53;;;2.33;;
9160;SDS011;4615;51.340;8.288;2023-02-02T11:47:46;3.35;;;2.40;;
9160;SDS011;4615;51.340;8.288;2023-02-02T11:50:14;3.60;;;3.30;;
9160;SDS011;4615;51.340;8.288;2023-02-02T11:52:44;3.03;;;2.73;;
9160;SDS011;4615;51.340;8.288;2023-02-02T11:55:14;2.80;;;2.60;;
9160;SDS011;4615;51.340;8.288;2023-02-02T11:57:43;2.80;;;2.60;;
9160;SDS011;4615;51.340;8.288;2023-02-02T12:00:29;3.00;;;2.80;;
9160;SDS011;4615;51.340;8.288;2023-02-02T12:02:57;2.93;;;2.67;;
9160;SDS011;4615;51.340;8.288;2023-02-02T12:05:34;3.27;;;3.07;;
9160;SDS011;4615;51.340;8.288;2023-02-02T12:08:00;3.47;;;3.17;;
9160;SDS011;4615;51.340;8.288;2023-02-02T12:10:31;3.17;;;2.93;;
9160;SDS011;4615;51.340;8.288;2023-02-02T12:13:03;4.20;;;3.90;;
9160;SDS011;4615;51.340;8.288;2023-02-02T12:15:31;3.90;;;3.60;;
9160;SDS011;4615;51.340;8.288;2023-02-02T12:18:05;5.15;;;4.75;;
9160;SDS011;4615;51.340;8.288;2023-02-02T12:20:35;6.18;;;5.57;;
9160;SDS011;4615;51.340;8.288;2023-02-02T12:23:10;5.77;;;5.27;;
9160;SDS011;4615;51.340;8.288;2023-02-02T12:28:32;7.32;;;6.63;;
9160;SDS011;4615;51.340;8.288;2023-02-02T12:31:05;9.00;;;8.18;;
9160;SDS011;4615;51.340;8.288;2023-02-02T12:33:37;8.48;;;7.43;;
9160;SDS011;4615;51.340;8.288;2023-02-02T12:36:18;9.55;;;8.65;;
9160;SDS011;4615;51.340;8.288;2023-02-02T12:38:51;14.00;;;11.60;;
9160;SDS011;4615;51.340;8.288;2023-02-02T12:41:24;12.90;;;11.45;;
9160;SDS011;4615;51.340;8.288;2023-02-02T12:43:58;10.32;;;9.27;;
9160;SDS011;4615;51.340;8.288;2023-02-02T12:46:32;9.40;;;8.40;;
9160;SDS011;4615;51.340;8.288;2023-02-02T12:49:10;9.25;;;8.38;;
9160;SDS011;4615;51.340;8.288;2023-02-02T12:51:42;9.20;;;8.38;;
9160;SDS011;4615;51.340;8.288;2023-02-02T12:54:14;9.38;;;8.48;;
9160;SDS011;4615;51.340;8.288;2023-02-02T12:56:43;8.60;;;7.67;;
9160;SDS011;4615;51.340;8.288;2023-02-02T12:59:14;8.77;;;7.90;;
9160;SDS011;4615;51.340;8.288;2023-02-02T13:01:45;8.27;;;7.47;;
9160;SDS011;4615;51.340;8.288;2023-02-02T13:04:25;7.07;;;6.47;;
9160;SDS011;4615;51.340;8.288;2023-02-02T13:07:01;7.38;;;6.78;;
9160;SDS011;4615;51.340;8.288;2023-02-02T13:09:32;6.82;;;6.32;;
9160;SDS011;4615;51.340;8.288;2023-02-02T13:12:04;7.55;;;6.65;;
9160;SDS011;4615;51.340;8.288;2023-02-02T13:14:33;7.00;;;6.40;;
9160;SDS011;4615;51.340;8.288;2023-02-02T13:17:04;7.72;;;7.03;;
9160;SDS011;4615;51.340;8.288;2023-02-02T13:19:34;6.93;;;6.32;;
9160;SDS011;4615;51.340;8.288;2023-02-02T13:22:02;7.70;;;7.00;;
9160;SDS011;4615;51.340;8.288;2023-02-02T13:24:30;7.65;;;6.95;;
9160;SDS011;4615;51.340;8.288;2023-02-02T13:26:58;7.35;;;6.75;;
9160;SDS011;4615;51.340;8.288;2023-02-02T13:29:26;7.32;;;6.72;;
9160;SDS011;4615;51.340;8.288;2023-02-02T13:31:55;8.07;;;7.38;;
9160;SDS011;4615;51.340;8.288;2023-02-02T13:34:25;8.10;;;7.40;;
9160;SDS011;4615;51.340;8.288;2023-02-02T13:36:55;7.47;;;6.88;;
9160;SDS011;4615;51.340;8.288;2023-02-02T13:39:24;7.22;;;6.60;;
9160;SDS011;4615;51.340;8.288;2023-02-02T13:41:51;7.50;;;6.80;;
9160;SDS011;4615;51.340;8.288;2023-02-02T13:44:20;6.60;;;6.00;;
9160;SDS011;4615;51.340;8.288;2023-02-02T13:46:49;5.85;;;5.35;;
9160;SDS011;4615;51.340;8.288;2023-02-02T13:49:17;5.20;;;4.80;;
9160;SDS011;4615;51.340;8.288;2023-02-02T13:51:52;5.80;;;5.30;;
9160;SDS011;4615;51.340;8.288;2023-02-02T13:57:10;6.82;;;6.32;;
9160;SDS011;4615;51.340;8.288;2023-02-02T13:59:43;6.60;;;6.00;;
9160;SDS011;4615;51.340;8.288;2023-02-02T14:02:15;6.57;;;6.07;;
9160;SDS011;4615;51.340;8.288;2023-02-02T14:04:44;7.20;;;6.60;;
9160;SDS011;4615;51.340;8.288;2023-02-02T14:07:17;8.00;;;7.30;;
9160;SDS011;4615;51.340;8.288;2023-02-02T14:09:51;8.70;;;7.90;;
9160;SDS011;4615;51.340;8.288;2023-02-02T14:12:24;9.70;;;8.90;;
9160;SDS011;4615;51.340;8.288;2023-02-02T14:14:52;9.43;;;8.63;;
9160;SDS011;4615;51.340;8.288;2023-02-02T14:20:04;8.97;;;8.17;;
9160;SDS011;4615;51.340;8.288;2023-02-02T14:22:43;9.10;;;8.30;;
9160;SDS011;4615;51.340;8.288;2023-02-02T14:28:36;9.52;;;8.73;;
9160;SDS011;4615;51.340;8.288;2023-02-02T14:33:44;9.32;;;8.52;;
9160;SDS011;4615;51.340;8.288;2023-02-02T14:36:13;9.50;;;8.60;;
9160;SDS011;4615;51.340;8.288;2023-02-02T14:41:29;9.97;;;8.50;;
9160;SDS011;4615;51.340;8.288;2023-02-02T14:44:16;9.13;;;8.32;;
9160;SDS011;4615;51.340;8.288;2023-02-02T14:46:42;9.00;;;8.10;;
9160;SDS011;4615;51.340;8.288;2023-02-02T14:49:17;8.70;;;7.88;;
9160;SDS011;4615;51.340;8.288;2023-02-02T14:51:48;10.00;;;8.15;;
9160;SDS011;4615;51.340;8.288;2023-02-02T14:54:17;9.45;;;8.57;;
9160;SDS011;4615;51.340;8.288;2023-02-02T14:56:46;9.27;;;8.38;;
9160;SDS011;4615;51.340;8.288;2023-02-02T14:59:16;9.20;;;8.13;;
9160;SDS011;4615;51.340;8.288;2023-02-02T15:01:44;9.52;;;8.65;;
9160;SDS011;4615;51.340;8.288;2023-02-02T15:04:22;9.10;;;8.20;;
9160;SDS011;4615;51.340;8.288;2023-02-02T15:06:49;9.07;;;8.18;;
9160;SDS011;4615;51.340;8.288;2023-02-02T15:09:36;8.68;;;7.88;;
9160;SDS011;4615;51.340;8.288;2023-02-02T15:12:19;9.30;;;8.40;;
9160;SDS011;4615;51.340;8.288;2023-02-02T15:14:50;9.95;;;9.05;;
9160;SDS011;4615;51.340;8.288;2023-02-02T15:17:20;10.10;;;9.20;;
9160;SDS011;4615;51.340;8.288;2023-02-02T15:19:49;10.52;;;9.48;;
9160;SDS011;4615;51.340;8.288;2023-02-02T15:22:21;10.18;;;9.27;;
9160;SDS011;4615;51.340;8.288;2023-02-02T15:24:50;11.60;;;10.60;;
9160;SDS011;4615;51.340;8.288;2023-02-02T15:27:17;10.45;;;9.48;;
9160;SDS011;4615;51.340;8.288;2023-02-02T15:29:44;10.73;;;9.73;;
9160;SDS011;4615;51.340;8.288;2023-02-02T15:32:15;11.70;;;10.68;;
9160;SDS011;4615;51.340;8.288;2023-02-02T15:34:44;11.75;;;10.57;;
9160;SDS011;4615;51.340;8.288;2023-02-02T15:37:12;10.80;;;9.80;;
9160;SDS011;4615;51.340;8.288;2023-02-02T15:39:40;10.88;;;9.93;;
9160;SDS011;4615;51.340;8.288;2023-02-02T15:42:12;12.25;;;11.10;;
9160;SDS011;4615;51.340;8.288;2023-02-02T15:44:56;12.20;;;11.10;;
9160;SDS011;4615;51.340;8.288;2023-02-02T15:47:26;10.93;;;9.82;;